createdAt,value
2017-07-17T00:00:09.094Z,88.70
2017-07-17T00:02:35.113Z,88.50
2017-07-17T00:05:01.167Z,88.70
2017-07-17T00:07:27.205Z,88.70
2017-07-17T00:09:53.961Z,88.50
2017-07-17T00:12:19.974Z,88.50
2017-07-17T00:14:46.054Z,88.40
2017-07-17T00:17:12.813Z,88.20
2017-07-17T00:19:38.835Z,88.10
2017-07-17T00:22:04.840Z,87.90
2017-07-17T00:24:30.858Z,87.90
2017-07-17T00:27:03.889Z,88.20
2017-07-17T00:29:29.910Z,88.30
2017-07-17T00:31:55.954Z,88.00
2017-07-17T00:34:21.973Z,87.50
2017-07-17T00:36:48.007Z,87.90
2017-07-17T00:39:14.036Z,87.90
2017-07-17T00:41:40.042Z,87.90
2017-07-17T00:44:06.058Z,87.90
2017-07-17T00:46:32.067Z,87.70
2017-07-17T00:48:58.085Z,88.00
2017-07-17T00:51:24.122Z,87.80
2017-07-17T00:53:50.129Z,87.40
2017-07-17T00:56:16.148Z,87.60
2017-07-17T00:58:42.163Z,88.00
2017-07-17T01:01:08.161Z,88.20
2017-07-17T01:03:34.190Z,88.00
2017-07-17T01:06:00.225Z,88.00
2017-07-17T01:08:26.275Z,88.00
2017-07-17T01:10:52.290Z,87.80
2017-07-17T01:13:18.338Z,87.80
2017-07-17T01:15:44.356Z,87.80
2017-07-17T01:18:10.404Z,87.60
2017-07-17T01:20:36.410Z,87.50
2017-07-17T01:23:02.418Z,87.50
2017-07-17T01:25:28.439Z,87.50
2017-07-17T01:27:54.447Z,87.50
2017-07-17T01:30:20.471Z,87.40
2017-07-17T01:32:47.246Z,87.30
2017-07-17T01:35:13.284Z,87.20
2017-07-17T01:37:39.298Z,87.50
2017-07-17T01:40:05.350Z,87.70
2017-07-17T01:42:31.402Z,87.60
2017-07-17T01:44:57.434Z,87.70
2017-07-17T01:47:23.469Z,87.40
2017-07-17T01:49:49.498Z,87.70
2017-07-17T01:52:15.527Z,87.50
2017-07-17T01:54:41.546Z,87.60
2017-07-17T01:57:07.561Z,87.60
2017-07-17T01:59:33.587Z,87.80
2017-07-17T02:02:00.353Z,88.20
2017-07-17T02:04:26.389Z,87.80
2017-07-17T02:06:52.446Z,88.00
2017-07-17T02:09:18.463Z,88.30
2017-07-17T02:11:44.491Z,88.50
2017-07-17T02:14:10.538Z,88.30
2017-07-17T02:16:36.566Z,88.30
2017-07-17T02:19:02.569Z,88.50
2017-07-17T02:21:28.612Z,88.60
2017-07-17T02:23:54.661Z,88.50
2017-07-17T02:26:20.673Z,88.30
2017-07-17T02:28:46.710Z,88.30
2017-07-17T02:31:13.501Z,88.10
2017-07-17T02:33:39.523Z,88.20
2017-07-17T02:36:05.532Z,88.20
2017-07-17T02:38:31.551Z,88.50
2017-07-17T02:40:57.553Z,88.70
2017-07-17T02:43:23.594Z,88.50
2017-07-17T02:45:49.614Z,88.80
2017-07-17T02:48:15.642Z,88.80
2017-07-17T02:50:41.659Z,88.80
2017-07-17T02:53:07.713Z,88.60
2017-07-17T02:55:34.458Z,89.10
2017-07-17T02:58:01.209Z,88.90
2017-07-17T03:00:27.249Z,88.70
2017-07-17T03:02:53.265Z,88.90
2017-07-17T03:05:19.290Z,89.00
2017-07-17T03:07:46.060Z,89.00
2017-07-17T03:10:12.110Z,89.00
2017-07-17T03:12:38.162Z,89.20
2017-07-17T03:15:04.225Z,88.80
2017-07-17T03:17:30.249Z,88.80
2017-07-17T03:19:56.295Z,89.00
2017-07-17T03:22:22.366Z,88.60
2017-07-17T03:24:48.402Z,88.50
2017-07-17T03:27:14.435Z,88.50
2017-07-17T03:29:40.504Z,88.50
2017-07-17T03:32:06.537Z,88.80
2017-07-17T03:34:32.570Z,88.60
2017-07-17T03:36:58.601Z,88.60
2017-07-17T03:39:24.614Z,88.60
2017-07-17T03:41:50.645Z,88.80
2017-07-17T03:44:17.406Z,89.60
2017-07-17T03:46:43.429Z,90.00
2017-07-17T03:49:09.465Z,89.30
2017-07-17T03:51:35.499Z,89.20
2017-07-17T03:54:02.274Z,89.10
2017-07-17T03:56:28.322Z,89.10
2017-07-17T03:58:54.346Z,89.20
2017-07-17T04:01:20.369Z,89.20
2017-07-17T04:03:46.422Z,89.80
2017-07-17T04:06:12.457Z,90.00
2017-07-17T04:08:39.246Z,90.10
2017-07-17T04:11:05.278Z,90.00
2017-07-17T04:13:31.318Z,90.10
2017-07-17T04:15:57.403Z,90.20
2017-07-17T04:18:23.477Z,90.20
2017-07-17T04:20:49.513Z,90.20
2017-07-17T04:23:15.559Z,90.30
2017-07-17T04:25:41.622Z,90.20
2017-07-17T04:28:07.657Z,90.30
2017-07-17T04:30:34.498Z,90.30
2017-07-17T04:33:00.610Z,90.30
2017-07-17T04:35:26.718Z,90.30
2017-07-17T04:37:52.762Z,90.50
2017-07-17T04:40:18.795Z,90.30
2017-07-17T04:42:44.849Z,90.30
2017-07-17T04:45:10.905Z,90.30
2017-07-17T04:47:36.965Z,90.40
2017-07-17T04:50:03.018Z,90.40
2017-07-17T04:52:29.069Z,90.30
2017-07-17T04:54:55.836Z,90.20
2017-07-17T04:57:21.874Z,90.50
2017-07-17T04:59:47.893Z,90.30
2017-07-17T05:02:13.927Z,90.20
2017-07-17T05:04:39.946Z,90.10
2017-07-17T05:07:05.986Z,90.10
2017-07-17T05:09:32.030Z,90.10
2017-07-17T05:11:58.094Z,90.00
2017-07-17T05:14:24.137Z,90.00
2017-07-17T05:16:50.153Z,88.80
2017-07-17T05:19:16.190Z,89.00
2017-07-17T05:21:42.206Z,88.20
2017-07-17T05:24:08.274Z,88.10
2017-07-17T05:26:49.267Z,88.00
2017-07-17T05:29:15.327Z,87.40
2017-07-17T05:31:41.358Z,87.10
2017-07-17T05:34:07.404Z,87.30
2017-07-17T05:36:33.465Z,86.90
2017-07-17T05:38:59.487Z,87.10
2017-07-17T05:41:25.518Z,87.00
2017-07-17T05:43:52.362Z,86.00
2017-07-17T05:46:18.463Z,86.00
2017-07-17T05:48:44.595Z,86.00
2017-07-17T05:51:10.735Z,84.80
2017-07-17T05:53:36.807Z,85.20
2017-07-17T05:56:02.842Z,85.40
2017-07-17T05:58:28.873Z,84.80
2017-07-17T06:00:54.981Z,85.20
2017-07-17T06:03:21.248Z,84.90
2017-07-17T06:05:47.343Z,83.60
2017-07-17T06:08:13.370Z,83.90
2017-07-17T06:10:39.452Z,82.80
2017-07-17T06:13:06.229Z,83.30
2017-07-17T06:15:32.266Z,83.20
2017-07-17T06:17:58.330Z,82.50
2017-07-17T06:20:24.434Z,82.10
2017-07-17T06:22:50.553Z,82.40
2017-07-17T06:25:16.589Z,81.50
2017-07-17T06:27:42.629Z,80.50
2017-07-17T06:30:09.412Z,78.60
2017-07-17T06:32:35.456Z,78.50
2017-07-17T06:35:01.562Z,78.30
2017-07-17T06:37:27.630Z,78.30
2017-07-17T06:39:53.649Z,77.50
2017-07-17T06:42:19.693Z,77.60
2017-07-17T06:44:53.506Z,76.80
2017-07-17T06:47:19.555Z,76.70
2017-07-17T06:49:45.582Z,75.90
2017-07-17T06:52:11.637Z,76.20
2017-07-17T06:54:37.674Z,76.50
2017-07-17T06:57:03.701Z,74.70
2017-07-17T06:59:29.735Z,73.60
2017-07-17T07:01:55.798Z,72.60
2017-07-17T07:04:21.847Z,72.90
2017-07-17T07:06:47.894Z,72.40
2017-07-17T07:09:13.929Z,72.80
2017-07-17T07:11:39.946Z,72.90
2017-07-17T07:14:05.957Z,72.30
2017-07-17T07:16:31.973Z,71.80
2017-07-17T07:18:57.989Z,71.70
2017-07-17T07:21:24.001Z,69.80
2017-07-17T07:23:50.019Z,69.80
2017-07-17T07:26:16.046Z,68.80
2017-07-17T07:28:42.794Z,68.80
2017-07-17T07:31:08.803Z,68.70
2017-07-17T07:33:34.818Z,66.90
2017-07-17T07:36:00.824Z,67.90
2017-07-17T07:38:26.838Z,68.00
2017-07-17T07:40:52.867Z,66.40
2017-07-17T07:43:18.911Z,66.50
2017-07-17T07:45:45.675Z,66.70
2017-07-17T07:48:11.725Z,66.70
2017-07-17T07:50:37.734Z,65.10
2017-07-17T07:53:03.754Z,65.80
2017-07-17T07:55:29.762Z,65.10
2017-07-17T07:57:55.761Z,65.50
2017-07-17T08:00:21.773Z,64.90
2017-07-17T08:02:47.778Z,63.00
2017-07-17T08:05:13.799Z,63.40
2017-07-17T08:07:39.809Z,62.50
2017-07-17T08:10:05.833Z,63.30
2017-07-17T08:12:32.650Z,61.10
2017-07-17T08:14:59.443Z,59.50
2017-07-17T08:17:25.515Z,59.50
2017-07-17T08:19:58.650Z,60.00
2017-07-17T08:22:24.682Z,61.70
2017-07-17T08:24:50.703Z,58.50
2017-07-17T08:27:16.729Z,59.20
2017-07-17T08:29:42.770Z,61.90
2017-07-17T08:32:08.822Z,60.30
2017-07-17T08:34:34.837Z,58.70
2017-07-17T08:37:00.876Z,57.60
2017-07-17T08:39:26.928Z,57.40
2017-07-17T08:41:53.725Z,59.90
2017-07-17T08:44:19.784Z,59.80
2017-07-17T08:46:45.866Z,58.70
2017-07-17T08:49:12.638Z,57.90
2017-07-17T08:51:38.698Z,57.90
2017-07-17T08:54:04.738Z,59.30
2017-07-17T08:56:30.778Z,56.80
2017-07-17T08:58:56.814Z,59.00
2017-07-17T09:01:22.843Z,57.40
2017-07-17T09:03:48.903Z,57.50
2017-07-17T09:06:14.938Z,56.90
2017-07-17T09:08:41.729Z,54.60
2017-07-17T09:11:07.768Z,54.60
2017-07-17T09:13:33.797Z,59.10
2017-07-17T09:15:59.825Z,54.10
2017-07-17T09:18:25.855Z,59.70
2017-07-17T09:20:51.890Z,55.20
2017-07-17T09:23:17.922Z,56.30
2017-07-17T09:25:43.945Z,54.90
2017-07-17T09:28:09.973Z,56.30
2017-07-17T09:30:36.022Z,55.20
2017-07-17T09:33:02.053Z,55.60
2017-07-17T09:35:28.073Z,57.20
2017-07-17T09:37:54.852Z,56.00
2017-07-17T09:40:20.909Z,55.90
2017-07-17T09:42:47.667Z,58.70
2017-07-17T09:45:13.710Z,58.50
2017-07-17T09:47:39.720Z,56.30
2017-07-17T09:50:05.750Z,53.00
2017-07-17T09:52:31.756Z,54.60
2017-07-17T09:54:57.770Z,53.80
2017-07-17T09:57:23.787Z,52.20
2017-07-17T09:59:50.542Z,55.50
2017-07-17T10:04:44.398Z,56.70
2017-07-17T10:07:10.426Z,54.70
2017-07-17T10:09:36.457Z,49.50
2017-07-17T10:12:02.522Z,50.20
2017-07-17T10:14:28.537Z,45.70
2017-07-17T10:16:54.589Z,44.70
2017-07-17T10:19:20.614Z,48.00
2017-07-17T10:21:46.632Z,42.60
2017-07-17T10:24:13.393Z,39.20
2017-07-17T10:26:39.411Z,39.20
2017-07-17T10:29:05.453Z,34.10
2017-07-17T10:31:31.478Z,37.90
2017-07-17T10:33:58.267Z,36.10
2017-07-17T10:36:24.285Z,35.90
2017-07-17T10:38:50.321Z,36.30
2017-07-17T10:41:17.073Z,35.70
2017-07-17T10:43:43.109Z,35.70
2017-07-17T10:46:09.117Z,36.60
2017-07-17T10:48:35.138Z,33.50
2017-07-17T10:51:01.173Z,30.70
2017-07-17T10:53:27.218Z,30.20
2017-07-17T10:55:53.242Z,34.20
2017-07-17T10:58:19.246Z,37.20
2017-07-17T11:00:45.289Z,35.10
2017-07-17T11:03:11.325Z,31.20
2017-07-17T11:05:37.346Z,31.60
2017-07-17T11:08:04.098Z,30.40
2017-07-17T11:10:30.126Z,30.40
2017-07-17T11:12:56.186Z,30.90
2017-07-17T11:15:22.995Z,32.90
2017-07-17T11:17:49.762Z,32.00
2017-07-17T11:20:15.793Z,31.90
2017-07-17T11:22:41.818Z,31.80
2017-07-17T11:25:07.849Z,32.00
2017-07-17T11:27:34.613Z,33.30
2017-07-17T11:30:00.638Z,33.20
2017-07-17T11:32:26.707Z,33.90
2017-07-17T11:34:52.737Z,32.10
2017-07-17T11:37:18.776Z,31.10
2017-07-17T11:39:44.793Z,29.90
2017-07-17T11:42:10.819Z,30.10
2017-07-17T11:44:38.061Z,27.70
2017-07-17T11:57:13.411Z,25.30
2017-07-17T11:59:40.833Z,25.00
2017-07-17T12:02:11.312Z,23.10
2017-07-17T12:04:38.258Z,25.00
2017-07-17T12:07:04.922Z,22.50
2017-07-17T12:09:32.356Z,24.50
2017-07-17T12:11:58.460Z,22.30
2017-07-17T12:14:24.485Z,25.20
2017-07-17T12:16:50.498Z,25.10
2017-07-17T12:19:16.533Z,25.80
2017-07-17T12:21:42.568Z,26.40
2017-07-17T12:24:08.606Z,24.20
2017-07-17T12:26:34.634Z,25.10
2017-07-17T12:29:00.679Z,26.60
2017-07-17T12:31:26.703Z,23.00
2017-07-17T12:33:52.725Z,25.10
2017-07-17T12:36:18.761Z,23.70
2017-07-17T12:38:44.831Z,24.40
2017-07-17T12:41:10.885Z,23.00
2017-07-17T12:43:36.922Z,25.00
2017-07-17T12:46:02.970Z,24.30
2017-07-17T12:48:35.909Z,24.70
2017-07-17T12:51:01.942Z,22.90
2017-07-17T12:53:27.958Z,22.40
2017-07-17T12:55:54.737Z,25.40
2017-07-17T12:58:20.779Z,25.40
2017-07-17T13:00:46.822Z,23.00
2017-07-17T13:03:12.845Z,27.60
2017-07-17T13:05:38.865Z,25.20
2017-07-17T13:08:04.879Z,30.30
2017-07-17T13:10:30.905Z,31.00
2017-07-17T13:12:56.930Z,30.60
2017-07-17T13:15:22.946Z,30.90
2017-07-17T13:17:48.958Z,31.10
2017-07-17T13:20:15.026Z,29.90
2017-07-17T13:22:41.065Z,31.90
2017-07-17T13:25:07.109Z,32.90
2017-07-17T13:27:33.145Z,34.20
2017-07-17T13:29:59.174Z,34.60
2017-07-17T13:32:25.186Z,31.60
2017-07-17T13:34:51.225Z,34.30
2017-07-17T13:37:17.269Z,33.60
2017-07-17T13:39:43.297Z,28.20
2017-07-17T13:42:09.330Z,31.80
2017-07-17T13:44:35.370Z,30.70
2017-07-17T13:47:02.127Z,28.40
2017-07-17T13:49:28.158Z,28.40
2017-07-17T13:51:54.201Z,29.70
2017-07-17T13:54:20.963Z,31.40
2017-07-17T13:56:46.985Z,30.90
2017-07-17T13:59:13.005Z,29.80
2017-07-17T14:01:39.213Z,32.00
2017-07-17T14:04:05.261Z,32.60
2017-07-17T14:06:32.034Z,28.90
2017-07-17T14:08:58.085Z,28.80
2017-07-17T14:11:24.101Z,28.30
2017-07-17T14:13:50.254Z,28.80
2017-07-17T14:16:16.281Z,27.10
2017-07-17T14:18:42.326Z,27.40
2017-07-17T14:21:08.388Z,27.90
2017-07-17T14:23:34.425Z,26.40
2017-07-17T14:26:00.445Z,27.50
2017-07-17T14:28:26.460Z,26.60
2017-07-17T14:30:52.532Z,28.00
2017-07-17T14:33:25.568Z,30.00
2017-07-17T14:35:51.680Z,32.10
2017-07-17T14:38:17.723Z,33.00
2017-07-17T14:40:43.777Z,32.80
2017-07-17T14:43:09.798Z,33.70
2017-07-17T14:45:35.841Z,35.50
2017-07-17T14:48:01.886Z,36.90
2017-07-17T14:50:27.918Z,38.10
2017-07-17T14:52:54.726Z,38.60
2017-07-17T14:55:20.773Z,38.40
2017-07-17T14:57:46.808Z,38.40
2017-07-17T15:00:12.907Z,40.70
2017-07-17T15:02:38.946Z,39.60
2017-07-17T15:05:04.966Z,37.60
2017-07-17T15:07:31.015Z,37.60
2017-07-17T15:09:57.057Z,37.60
2017-07-17T15:12:23.125Z,36.80
2017-07-17T15:14:49.894Z,37.10
2017-07-17T15:17:15.953Z,37.10
2017-07-17T15:19:41.981Z,37.80
2017-07-17T15:22:08.023Z,39.50
2017-07-17T15:24:34.065Z,40.60
2017-07-17T15:27:00.863Z,39.40
2017-07-17T15:29:26.905Z,39.30
2017-07-17T15:31:52.946Z,39.20
2017-07-17T15:34:19.003Z,39.10
2017-07-17T15:36:45.035Z,36.20
2017-07-17T15:39:11.079Z,35.80
2017-07-17T15:41:37.132Z,32.70
2017-07-17T15:44:03.167Z,28.40
2017-07-17T15:46:29.201Z,26.40
2017-07-17T15:48:55.250Z,26.90
2017-07-17T15:51:21.275Z,30.10
2017-07-17T15:53:47.321Z,31.00
2017-07-17T15:56:13.362Z,29.60
2017-07-17T15:58:39.429Z,29.20
2017-07-17T16:01:05.509Z,28.80
2017-07-17T16:03:31.567Z,31.10
2017-07-17T16:05:57.593Z,30.00
2017-07-17T16:08:23.622Z,30.80
2017-07-17T16:10:49.650Z,32.40
2017-07-17T16:13:16.429Z,37.30
2017-07-17T16:15:42.464Z,36.60
2017-07-17T16:18:08.494Z,36.90
2017-07-17T16:20:34.508Z,35.10
2017-07-17T16:23:00.526Z,34.10
2017-07-17T16:25:27.278Z,34.60
2017-07-17T16:27:53.316Z,34.60
2017-07-17T16:30:19.331Z,34.40
2017-07-17T16:32:45.369Z,34.70
2017-07-17T16:35:11.378Z,38.10
2017-07-17T16:37:38.181Z,40.50
2017-07-17T16:40:04.196Z,39.80
2017-07-17T16:42:30.236Z,39.90
2017-07-17T16:44:56.262Z,36.40
2017-07-17T16:47:22.265Z,36.30
2017-07-17T16:49:48.285Z,37.50
2017-07-17T16:52:14.328Z,39.90
2017-07-17T16:54:40.351Z,42.50
2017-07-17T16:57:06.358Z,44.00
2017-07-17T16:59:32.374Z,44.70
2017-07-17T17:01:58.377Z,45.80
2017-07-17T17:04:24.398Z,45.60
2017-07-17T17:06:50.414Z,47.00
2017-07-17T17:09:16.478Z,47.20
2017-07-17T17:11:42.518Z,47.30
2017-07-17T17:14:08.548Z,48.10
2017-07-17T17:16:34.578Z,47.90
2017-07-17T17:19:00.637Z,50.50
2017-07-17T17:21:26.662Z,49.40
2017-07-17T17:23:53.449Z,49.80
2017-07-17T17:26:19.474Z,49.80
2017-07-17T17:28:45.525Z,50.50
2017-07-17T17:31:11.535Z,49.70
2017-07-17T17:33:37.593Z,50.70
2017-07-17T17:36:03.637Z,50.70
2017-07-17T17:38:29.687Z,50.40
2017-07-17T17:40:55.767Z,50.30
2017-07-17T17:43:21.820Z,50.40
2017-07-17T17:45:47.857Z,50.60
2017-07-17T17:48:14.653Z,51.00
2017-07-17T17:50:40.689Z,50.50
2017-07-17T17:53:07.238Z,52.50
2017-07-17T17:55:33.279Z,52.10
2017-07-17T17:57:59.299Z,51.60
2017-07-17T18:00:25.342Z,52.40
2017-07-17T18:02:52.137Z,52.40
2017-07-17T18:05:18.171Z,52.30
2017-07-17T18:07:44.195Z,53.80
2017-07-17T18:10:10.224Z,54.00
2017-07-17T18:12:36.268Z,53.90
2017-07-17T18:15:02.323Z,53.80
2017-07-17T18:17:29.126Z,55.30
2017-07-17T18:19:55.953Z,55.10
2017-07-17T18:22:21.974Z,55.10
2017-07-17T18:24:47.994Z,54.90
2017-07-17T18:27:14.753Z,54.20
2017-07-17T18:29:40.785Z,54.00
2017-07-17T18:32:06.818Z,55.10
2017-07-17T18:34:32.858Z,55.10
2017-07-17T18:36:58.897Z,55.30
2017-07-17T18:39:24.924Z,55.60
2017-07-17T18:41:50.968Z,55.00
2017-07-17T18:44:17.836Z,56.00
2017-07-17T18:46:43.876Z,56.00
2017-07-17T18:49:09.917Z,56.20
2017-07-17T18:51:35.981Z,57.20
2017-07-17T18:54:02.023Z,56.90
2017-07-17T18:56:28.086Z,56.90
2017-07-17T18:58:55.697Z,58.40
2017-07-17T19:01:21.725Z,58.20
2017-07-17T19:03:47.772Z,58.80
2017-07-17T19:06:13.825Z,58.00
2017-07-17T19:08:39.920Z,58.80
2017-07-17T19:11:06.685Z,58.90
2017-07-17T19:13:32.741Z,58.90
2017-07-17T19:15:59.514Z,59.60
2017-07-17T19:18:25.555Z,59.10
2017-07-17T19:20:51.599Z,60.00
2017-07-17T19:23:18.381Z,60.10
2017-07-17T19:25:44.422Z,60.10
2017-07-17T19:28:10.511Z,60.50
2017-07-17T19:30:36.570Z,61.30
2017-07-17T19:33:02.613Z,61.40
2017-07-17T19:35:28.673Z,61.80
2017-07-17T19:37:54.697Z,62.70
2017-07-17T19:40:20.727Z,63.70
2017-07-17T19:42:46.792Z,64.30
2017-07-17T19:45:19.871Z,64.70
2017-07-17T19:47:46.654Z,66.10
2017-07-17T19:50:12.678Z,66.10
2017-07-17T19:52:38.725Z,66.50
2017-07-17T19:55:04.770Z,66.50
2017-07-17T19:57:30.822Z,66.80
2017-07-17T19:59:57.605Z,67.10
2017-07-17T20:02:24.239Z,67.10
2017-07-17T20:04:50.405Z,67.50
2017-07-17T20:07:16.433Z,68.40
2017-07-17T20:09:42.458Z,67.80
2017-07-17T20:12:08.485Z,68.40
2017-07-17T20:14:34.527Z,69.20
2017-07-17T20:17:01.290Z,68.90
2017-07-17T20:19:27.325Z,68.90
2017-07-17T20:21:53.346Z,69.90
2017-07-17T20:24:19.389Z,69.60
2017-07-17T20:26:45.437Z,69.40
2017-07-17T20:29:11.445Z,70.00
2017-07-17T20:31:37.509Z,69.70
2017-07-17T20:34:03.554Z,70.10
2017-07-17T20:36:29.590Z,70.90
2017-07-17T20:38:55.710Z,70.60
2017-07-17T20:41:21.841Z,70.60
2017-07-17T20:43:48.784Z,70.70
2017-07-17T20:46:14.858Z,70.60
2017-07-17T20:48:40.904Z,70.70
2017-07-17T20:51:06.922Z,71.30
2017-07-17T20:53:32.953Z,70.90
2017-07-17T20:55:58.965Z,71.20
2017-07-17T20:58:24.987Z,71.80
2017-07-17T21:00:51.023Z,71.50
2017-07-17T21:03:17.072Z,71.70
2017-07-17T21:05:43.098Z,71.80
2017-07-17T21:08:09.134Z,71.50
2017-07-17T21:10:35.142Z,71.80
2017-07-17T21:13:01.182Z,71.80
2017-07-17T21:15:27.198Z,71.70
2017-07-17T21:17:53.218Z,71.30
2017-07-17T21:20:19.247Z,72.20
2017-07-17T21:22:45.281Z,71.20
2017-07-17T21:25:12.055Z,72.70
2017-07-17T21:27:38.114Z,72.70
2017-07-17T21:30:04.145Z,72.00
2017-07-17T21:32:30.937Z,73.30
2017-07-17T21:34:56.963Z,72.50
2017-07-17T21:37:22.994Z,72.90
2017-07-17T21:39:49.750Z,72.70
2017-07-17T21:42:15.787Z,72.60
2017-07-17T21:44:41.825Z,73.40
2017-07-17T21:47:07.866Z,73.70
2017-07-17T21:49:33.877Z,73.30
2017-07-17T21:51:59.893Z,73.90
2017-07-17T21:54:25.932Z,73.70
2017-07-17T21:56:51.968Z,73.70
2017-07-17T21:59:17.991Z,73.60
2017-07-17T22:01:44.013Z,74.00
2017-07-17T22:04:10.065Z,74.40
2017-07-17T22:06:36.102Z,74.20
2017-07-17T22:09:02.866Z,75.00
2017-07-17T22:11:35.958Z,74.40
2017-07-17T22:14:01.996Z,74.40
2017-07-17T22:16:35.062Z,75.20
2017-07-17T22:19:01.124Z,74.90
2017-07-17T22:21:27.150Z,74.90
2017-07-17T22:23:53.176Z,74.70
2017-07-17T22:26:19.199Z,75.20
2017-07-17T22:28:45.222Z,75.30
2017-07-17T22:31:11.228Z,75.50
2017-07-17T22:33:37.259Z,75.70
2017-07-17T22:36:04.003Z,76.20
2017-07-17T22:38:30.040Z,76.20
2017-07-17T22:40:56.066Z,75.90
2017-07-17T22:43:22.084Z,75.50
2017-07-17T22:45:48.085Z,76.30
2017-07-17T22:48:14.092Z,76.10
2017-07-17T22:50:40.126Z,76.40
2017-07-17T22:53:06.884Z,76.60
2017-07-17T22:55:32.909Z,76.10
2017-07-17T22:57:58.929Z,76.30
2017-07-17T23:00:24.977Z,76.50
2017-07-17T23:02:50.984Z,76.60
2017-07-17T23:05:17.750Z,76.90
2017-07-17T23:07:43.765Z,76.80
2017-07-17T23:10:09.798Z,77.10
2017-07-17T23:12:35.818Z,77.40
2017-07-17T23:15:01.883Z,77.20
2017-07-17T23:17:27.893Z,77.40
2017-07-17T23:19:53.941Z,77.10
2017-07-17T23:22:19.950Z,77.20
2017-07-17T23:24:45.977Z,77.20
2017-07-17T23:27:12.009Z,78.10
2017-07-17T23:29:38.034Z,77.70
2017-07-17T23:32:04.046Z,77.50
2017-07-17T23:34:30.074Z,77.10
2017-07-17T23:36:56.106Z,77.10
2017-07-17T23:39:22.134Z,77.30
2017-07-17T23:41:48.897Z,77.10
2017-07-17T23:44:14.939Z,77.10
2017-07-17T23:46:41.716Z,77.80
2017-07-17T23:49:07.729Z,77.80
2017-07-17T23:51:33.765Z,77.70
2017-07-17T23:53:59.805Z,77.80
2017-07-17T23:56:26.578Z,78.20
2017-07-17T23:58:52.601Z,78.20
